sensor_id;sensor_type;location;lat;lon;timestamp;temperature;humidity
28023;DHT22;67403;50.104;8.758;2023-03-03T00:00:55;2.80;99.90
28023;DHT22;67403;50.104;8.758;2023-03-03T00:03:23;2.80;99.90
28023;DHT22;67403;50.104;8.758;2023-03-03T00:05:52;2.70;99.90
28023;DHT22;67403;50.104;8.758;2023-03-03T00:08:20;2.70;99.90
28023;DHT22;67403;50.104;8.758;2023-03-03T00:10:47;2.70;99.90
28023;DHT22;67403;50.104;8.758;2023-03-03T00:13:15;2.60;99.90
28023;DHT22;67403;50.104;8.758;2023-03-03T00:15:43;2.60;99.90
28023;DHT22;67403;50.104;8.758;2023-03-03T00:18:21;2.70;99.90
28023;DHT22;67403;50.104;8.758;2023-03-03T00:20:52;2.60;99.90
28023;DHT22;67403;50.104;8.758;2023-03-03T00:23:26;2.60;99.90
28023;DHT22;67403;50.104;8.758;2023-03-03T00:25:54;2.60;99.90
28023;DHT22;67403;50.104;8.758;2023-03-03T00:28:24;2.60;99.90
28023;DHT22;67403;50.104;8.758;2023-03-03T00:30:53;2.60;99.90
28023;DHT22;67403;50.104;8.758;2023-03-03T00:33:30;2.60;99.90
28023;DHT22;67403;50.104;8.758;2023-03-03T00:36:24;2.50;99.90
28023;DHT22;67403;50.104;8.758;2023-03-03T00:38:54;2.50;99.90
28023;DHT22;67403;50.104;8.758;2023-03-03T00:41:24;2.40;99.90
28023;DHT22;67403;50.104;8.758;2023-03-03T00:43:52;2.40;99.90
28023;DHT22;67403;50.104;8.758;2023-03-03T00:46:20;2.40;99.90
28023;DHT22;67403;50.104;8.758;2023-03-03T00:48:50;2.40;99.90
28023;DHT22;67403;50.104;8.758;2023-03-03T00:51:26;2.40;99.90
28023;DHT22;67403;50.104;8.758;2023-03-03T00:53:53;2.40;99.90
28023;DHT22;67403;50.104;8.758;2023-03-03T00:56:21;2.30;99.90
28023;DHT22;67403;50.104;8.758;2023-03-03T00:58:48;2.30;99.90
28023;DHT22;67403;50.104;8.758;2023-03-03T01:01:16;2.30;99.90
28023;DHT22;67403;50.104;8.758;2023-03-03T01:03:43;2.30;99.90
28023;DHT22;67403;50.104;8.758;2023-03-03T01:06:11;2.20;99.90
28023;DHT22;67403;50.104;8.758;2023-03-03T01:08:39;2.20;99.90
28023;DHT22;67403;50.104;8.758;2023-03-03T01:11:08;2.10;99.90
28023;DHT22;67403;50.104;8.758;2023-03-03T01:13:38;2.10;99.90
28023;DHT22;67403;50.104;8.758;2023-03-03T01:16:06;2.10;99.90
28023;DHT22;67403;50.104;8.758;2023-03-03T01:18:34;2.10;99.90
28023;DHT22;67403;50.104;8.758;2023-03-03T01:21:01;2.10;99.90
28023;DHT22;67403;50.104;8.758;2023-03-03T01:23:29;2.10;99.90
28023;DHT22;67403;50.104;8.758;2023-03-03T01:25:56;2.10;99.90
28023;DHT22;67403;50.104;8.758;2023-03-03T01:28:23;2.00;99.90
28023;DHT22;67403;50.104;8.758;2023-03-03T01:30:50;2.00;99.90
28023;DHT22;67403;50.104;8.758;2023-03-03T01:33:17;2.00;99.90
28023;DHT22;67403;50.104;8.758;2023-03-03T01:35:45;2.00;99.90
28023;DHT22;67403;50.104;8.758;2023-03-03T01:38:12;2.00;99.90
28023;DHT22;67403;50.104;8.758;2023-03-03T01:40:40;1.90;99.90
28023;DHT22;67403;50.104;8.758;2023-03-03T01:43:07;1.80;99.90
28023;DHT22;67403;50.104;8.758;2023-03-03T01:45:44;1.80;99.90
28023;DHT22;67403;50.104;8.758;2023-03-03T01:48:32;1.80;99.90
28023;DHT22;67403;50.104;8.758;2023-03-03T01:51:02;1.80;99.90
28023;DHT22;67403;50.104;8.758;2023-03-03T01:53:33;1.80;99.90
28023;DHT22;67403;50.104;8.758;2023-03-03T01:56:03;1.80;99.90
28023;DHT22;67403;50.104;8.758;2023-03-03T01:58:32;1.80;99.90
28023;DHT22;67403;50.104;8.758;2023-03-03T02:01:03;1.90;99.90
28023;DHT22;67403;50.104;8.758;2023-03-03T02:03:31;1.80;99.90
28023;DHT22;67403;50.104;8.758;2023-03-03T02:06:02;1.80;99.90
28023;DHT22;67403;50.104;8.758;2023-03-03T02:08:34;1.80;99.90
28023;DHT22;67403;50.104;8.758;2023-03-03T02:11:04;1.70;99.90
28023;DHT22;67403;50.104;8.758;2023-03-03T02:13:32;1.70;99.90
28023;DHT22;67403;50.104;8.758;2023-03-03T02:15:59;1.60;99.90
28023;DHT22;67403;50.104;8.758;2023-03-03T02:18:26;1.60;99.90
28023;DHT22;67403;50.104;8.758;2023-03-03T02:20:57;1.60;99.90
28023;DHT22;67403;50.104;8.758;2023-03-03T02:23:29;1.60;99.90
28023;DHT22;67403;50.104;8.758;2023-03-03T02:26:08;1.50;99.90
28023;DHT22;67403;50.104;8.758;2023-03-03T02:28:37;1.60;99.90
28023;DHT22;67403;50.104;8.758;2023-03-03T02:31:08;1.60;99.90
28023;DHT22;67403;50.104;8.758;2023-03-03T02:33:37;1.60;99.90
28023;DHT22;67403;50.104;8.758;2023-03-03T02:36:05;1.50;99.90
28023;DHT22;67403;50.104;8.758;2023-03-03T02:38:36;1.50;99.90
28023;DHT22;67403;50.104;8.758;2023-03-03T02:41:12;1.50;99.90
28023;DHT22;67403;50.104;8.758;2023-03-03T02:43:44;1.50;99.90
28023;DHT22;67403;50.104;8.758;2023-03-03T02:46:12;1.50;99.90
28023;DHT22;67403;50.104;8.758;2023-03-03T02:48:39;1.50;99.90
28023;DHT22;67403;50.104;8.758;2023-03-03T02:51:06;1.60;99.90
28023;DHT22;67403;50.104;8.758;2023-03-03T02:53:33;1.50;99.90
28023;DHT22;67403;50.104;8.758;2023-03-03T02:56:00;1.50;99.90
28023;DHT22;67403;50.104;8.758;2023-03-03T02:58:30;1.40;99.90
28023;DHT22;67403;50.104;8.758;2023-03-03T03:00:57;1.40;99.90
28023;DHT22;67403;50.104;8.758;2023-03-03T03:03:24;1.40;99.90
28023;DHT22;67403;50.104;8.758;2023-03-03T03:05:51;1.30;99.90
28023;DHT22;67403;50.104;8.758;2023-03-03T03:08:18;1.30;99.90
28023;DHT22;67403;50.104;8.758;2023-03-03T03:10:44;1.30;99.90
28023;DHT22;67403;50.104;8.758;2023-03-03T03:13:11;1.30;99.90
28023;DHT22;67403;50.104;8.758;2023-03-03T03:15:40;1.30;99.90
28023;DHT22;67403;50.104;8.758;2023-03-03T03:18:07;1.30;99.90
28023;DHT22;67403;50.104;8.758;2023-03-03T03:20:35;1.30;99.90
28023;DHT22;67403;50.104;8.758;2023-03-03T03:23:04;1.30;99.90
28023;DHT22;67403;50.104;8.758;2023-03-03T03:25:31;1.30;99.90
28023;DHT22;67403;50.104;8.758;2023-03-03T03:27:58;1.20;99.90
28023;DHT22;67403;50.104;8.758;2023-03-03T03:30:25;1.20;99.90
28023;DHT22;67403;50.104;8.758;2023-03-03T03:32:53;1.20;99.90
28023;DHT22;67403;50.104;8.758;2023-03-03T03:35:20;1.20;99.90
28023;DHT22;67403;50.104;8.758;2023-03-03T03:37:47;1.10;99.90
28023;DHT22;67403;50.104;8.758;2023-03-03T03:40:14;1.10;99.90
28023;DHT22;67403;50.104;8.758;2023-03-03T03:42:41;1.10;99.90
28023;DHT22;67403;50.104;8.758;2023-03-03T03:45:09;1.10;99.90
28023;DHT22;67403;50.104;8.758;2023-03-03T03:47:40;1.10;99.90
28023;DHT22;67403;50.104;8.758;2023-03-03T03:50:09;1.00;99.90
28023;DHT22;67403;50.104;8.758;2023-03-03T03:52:36;1.00;99.90
28023;DHT22;67403;50.104;8.758;2023-03-03T03:55:04;1.00;99.90
28023;DHT22;67403;50.104;8.758;2023-03-03T03:57:31;1.00;99.90
28023;DHT22;67403;50.104;8.758;2023-03-03T03:59:58;0.90;99.90
28023;DHT22;67403;50.104;8.758;2023-03-03T04:02:25;0.90;99.90
28023;DHT22;67403;50.104;8.758;2023-03-03T04:04:52;0.90;99.90
28023;DHT22;67403;50.104;8.758;2023-03-03T04:07:20;0.80;99.90
28023;DHT22;67403;50.104;8.758;2023-03-03T04:09:48;0.80;99.90
28023;DHT22;67403;50.104;8.758;2023-03-03T04:12:15;0.80;99.90
28023;DHT22;67403;50.104;8.758;2023-03-03T04:14:41;0.80;99.90
28023;DHT22;67403;50.104;8.758;2023-03-03T04:17:10;0.70;99.90
28023;DHT22;67403;50.104;8.758;2023-03-03T04:19:41;0.70;99.90
28023;DHT22;67403;50.104;8.758;2023-03-03T04:22:08;0.70;99.90
28023;DHT22;67403;50.104;8.758;2023-03-03T04:24:36;0.70;99.90
28023;DHT22;67403;50.104;8.758;2023-03-03T04:27:03;0.70;99.90
28023;DHT22;67403;50.104;8.758;2023-03-03T04:29:30;0.70;99.90
28023;DHT22;67403;50.104;8.758;2023-03-03T04:31:57;0.60;99.90
28023;DHT22;67403;50.104;8.758;2023-03-03T04:34:24;0.60;99.90
28023;DHT22;67403;50.104;8.758;2023-03-03T04:36:50;0.50;99.90
28023;DHT22;67403;50.104;8.758;2023-03-03T04:39:17;0.50;99.90
28023;DHT22;67403;50.104;8.758;2023-03-03T04:41:46;0.50;99.90
28023;DHT22;67403;50.104;8.758;2023-03-03T04:44:12;0.50;99.90
28023;DHT22;67403;50.104;8.758;2023-03-03T04:46:39;0.40;99.90
28023;DHT22;67403;50.104;8.758;2023-03-03T04:49:06;0.40;99.90
28023;DHT22;67403;50.104;8.758;2023-03-03T04:51:33;0.40;99.90
28023;DHT22;67403;50.104;8.758;2023-03-03T04:54:00;0.40;99.90
28023;DHT22;67403;50.104;8.758;2023-03-03T04:56:29;0.30;99.90
28023;DHT22;67403;50.104;8.758;2023-03-03T04:58:57;0.30;99.90
28023;DHT22;67403;50.104;8.758;2023-03-03T05:01:24;0.30;99.90
28023;DHT22;67403;50.104;8.758;2023-03-03T05:03:51;0.20;99.90
28023;DHT22;67403;50.104;8.758;2023-03-03T05:06:18;0.20;99.90
28023;DHT22;67403;50.104;8.758;2023-03-03T05:08:45;0.10;99.90
28023;DHT22;67403;50.104;8.758;2023-03-03T05:11:12;0.10;99.90
28023;DHT22;67403;50.104;8.758;2023-03-03T05:13:39;0.10;99.90
28023;DHT22;67403;50.104;8.758;2023-03-03T05:16:08;0.10;99.90
28023;DHT22;67403;50.104;8.758;2023-03-03T05:18:35;0.00;99.90
28023;DHT22;67403;50.104;8.758;2023-03-03T05:21:02;0.00;99.90
28023;DHT22;67403;50.104;8.758;2023-03-03T05:23:29;0.00;99.90
28023;DHT22;67403;50.104;8.758;2023-03-03T05:25:56;0.00;99.90
28023;DHT22;67403;50.104;8.758;2023-03-03T05:28:23;-0.10;99.90
28023;DHT22;67403;50.104;8.758;2023-03-03T05:30:50;-0.10;99.90
28023;DHT22;67403;50.104;8.758;2023-03-03T05:33:18;-0.10;99.90
28023;DHT22;67403;50.104;8.758;2023-03-03T05:35:45;-0.20;99.90
28023;DHT22;67403;50.104;8.758;2023-03-03T05:38:13;-0.30;99.90
28023;DHT22;67403;50.104;8.758;2023-03-03T05:40:39;-0.30;99.90
28023;DHT22;67403;50.104;8.758;2023-03-03T05:43:08;-0.30;99.90
28023;DHT22;67403;50.104;8.758;2023-03-03T05:45:35;-0.40;99.90
28023;DHT22;67403;50.104;8.758;2023-03-03T05:48:02;-0.40;99.90
28023;DHT22;67403;50.104;8.758;2023-03-03T05:50:31;-0.40;99.90
28023;DHT22;67403;50.104;8.758;2023-03-03T05:52:58;-0.40;99.90
28023;DHT22;67403;50.104;8.758;2023-03-03T05:55:25;-0.40;99.90
28023;DHT22;67403;50.104;8.758;2023-03-03T05:57:52;-0.30;99.90
28023;DHT22;67403;50.104;8.758;2023-03-03T06:00:20;-0.30;99.90
28023;DHT22;67403;50.104;8.758;2023-03-03T06:02:47;-0.30;99.90
28023;DHT22;67403;50.104;8.758;2023-03-03T06:05:14;-0.30;99.90
28023;DHT22;67403;50.104;8.758;2023-03-03T06:07:42;-0.30;99.90
28023;DHT22;67403;50.104;8.758;2023-03-03T06:10:10;-0.30;99.90
28023;DHT22;67403;50.104;8.758;2023-03-03T06:12:37;-0.20;99.90
28023;DHT22;67403;50.104;8.758;2023-03-03T06:15:06;-0.20;99.90
28023;DHT22;67403;50.104;8.758;2023-03-03T06:17:33;-0.10;99.90
28023;DHT22;67403;50.104;8.758;2023-03-03T06:20:00;-0.10;99.90
28023;DHT22;67403;50.104;8.758;2023-03-03T06:22:28;0.00;99.90
28023;DHT22;67403;50.104;8.758;2023-03-03T06:24:57;0.00;99.90
28023;DHT22;67403;50.104;8.758;2023-03-03T06:27:24;0.00;99.90
28023;DHT22;67403;50.104;8.758;2023-03-03T06:29:51;0.00;99.90
28023;DHT22;67403;50.104;8.758;2023-03-03T06:32:18;0.10;99.90
28023;DHT22;67403;50.104;8.758;2023-03-03T06:34:45;0.10;99.90
28023;DHT22;67403;50.104;8.758;2023-03-03T06:37:12;0.10;99.90
28023;DHT22;67403;50.104;8.758;2023-03-03T06:39:39;0.10;99.90
28023;DHT22;67403;50.104;8.758;2023-03-03T06:42:07;0.10;99.90
28023;DHT22;67403;50.104;8.758;2023-03-03T06:44:35;0.10;99.90
28023;DHT22;67403;50.104;8.758;2023-03-03T06:47:02;0.20;99.90
28023;DHT22;67403;50.104;8.758;2023-03-03T06:49:30;0.20;99.90
28023;DHT22;67403;50.104;8.758;2023-03-03T06:51:58;0.30;99.90
28023;DHT22;67403;50.104;8.758;2023-03-03T06:54:28;0.30;99.90
28023;DHT22;67403;50.104;8.758;2023-03-03T06:57:17;0.30;99.90
28023;DHT22;67403;50.104;8.758;2023-03-03T06:59:48;0.40;99.90
28023;DHT22;67403;50.104;8.758;2023-03-03T07:02:18;0.40;99.90
28023;DHT22;67403;50.104;8.758;2023-03-03T07:04:45;0.40;99.90
28023;DHT22;67403;50.104;8.758;2023-03-03T07:07:16;0.40;99.90
28023;DHT22;67403;50.104;8.758;2023-03-03T07:09:45;0.50;99.90
28023;DHT22;67403;50.104;8.758;2023-03-03T07:12:14;0.50;99.90
28023;DHT22;67403;50.104;8.758;2023-03-03T07:14:45;0.50;99.90
28023;DHT22;67403;50.104;8.758;2023-03-03T07:17:16;0.60;99.90
28023;DHT22;67403;50.104;8.758;2023-03-03T07:19:44;0.60;99.90
28023;DHT22;67403;50.104;8.758;2023-03-03T07:22:14;0.60;99.90
28023;DHT22;67403;50.104;8.758;2023-03-03T07:24:43;0.70;99.90
28023;DHT22;67403;50.104;8.758;2023-03-03T07:27:13;0.70;99.90
28023;DHT22;67403;50.104;8.758;2023-03-03T07:29:46;0.80;99.90
28023;DHT22;67403;50.104;8.758;2023-03-03T07:32:25;0.90;99.90
28023;DHT22;67403;50.104;8.758;2023-03-03T07:34:54;1.00;99.90
28023;DHT22;67403;50.104;8.758;2023-03-03T07:37:28;0.90;99.90
28023;DHT22;67403;50.104;8.758;2023-03-03T07:39:55;1.00;99.90
28023;DHT22;67403;50.104;8.758;2023-03-03T07:42:24;1.00;99.90
28023;DHT22;67403;50.104;8.758;2023-03-03T07:44:54;1.10;99.90
28023;DHT22;67403;50.104;8.758;2023-03-03T07:47:23;1.20;99.90
28023;DHT22;67403;50.104;8.758;2023-03-03T07:49:52;1.20;99.90
28023;DHT22;67403;50.104;8.758;2023-03-03T07:52:24;1.40;99.90
28023;DHT22;67403;50.104;8.758;2023-03-03T07:54:52;1.30;99.90
28023;DHT22;67403;50.104;8.758;2023-03-03T07:57:22;1.30;99.90
28023;DHT22;67403;50.104;8.758;2023-03-03T07:59:52;1.40;99.90
28023;DHT22;67403;50.104;8.758;2023-03-03T08:02:34;1.50;99.90
28023;DHT22;67403;50.104;8.758;2023-03-03T08:05:22;1.70;99.90
28023;DHT22;67403;50.104;8.758;2023-03-03T08:07:52;1.80;99.90
28023;DHT22;67403;50.104;8.758;2023-03-03T08:10:34;1.80;99.90
28023;DHT22;67403;50.104;8.758;2023-03-03T08:13:12;1.70;99.90
28023;DHT22;67403;50.104;8.758;2023-03-03T08:15:44;1.90;99.90
28023;DHT22;67403;50.104;8.758;2023-03-03T08:18:23;2.20;99.90
28023;DHT22;67403;50.104;8.758;2023-03-03T08:20:52;2.40;99.90
28023;DHT22;67403;50.104;8.758;2023-03-03T08:23:20;2.20;99.90
28023;DHT22;67403;50.104;8.758;2023-03-03T08:25:49;2.20;99.90
28023;DHT22;67403;50.104;8.758;2023-03-03T08:28:16;2.20;99.90
28023;DHT22;67403;50.104;8.758;2023-03-03T08:30:44;2.60;99.90
28023;DHT22;67403;50.104;8.758;2023-03-03T08:33:11;2.90;99.90
28023;DHT22;67403;50.104;8.758;2023-03-03T08:35:40;2.80;99.90
28023;DHT22;67403;50.104;8.758;2023-03-03T08:38:08;2.70;99.90
28023;DHT22;67403;50.104;8.758;2023-03-03T08:40:35;2.80;99.90
28023;DHT22;67403;50.104;8.758;2023-03-03T08:43:02;3.10;99.90
28023;DHT22;67403;50.104;8.758;2023-03-03T08:45:31;3.10;99.90
28023;DHT22;67403;50.104;8.758;2023-03-03T08:47:58;3.20;99.90
28023;DHT22;67403;50.104;8.758;2023-03-03T08:50:26;3.10;99.90
28023;DHT22;67403;50.104;8.758;2023-03-03T08:52:54;2.90;99.90
28023;DHT22;67403;50.104;8.758;2023-03-03T08:55:21;2.60;99.90
28023;DHT22;67403;50.104;8.758;2023-03-03T08:57:48;2.70;99.90
28023;DHT22;67403;50.104;8.758;2023-03-03T09:00:17;2.90;99.90
28023;DHT22;67403;50.104;8.758;2023-03-03T09:02:45;2.90;99.90
28023;DHT22;67403;50.104;8.758;2023-03-03T09:05:12;3.10;99.90
28023;DHT22;67403;50.104;8.758;2023-03-03T09:07:39;3.10;99.90
28023;DHT22;67403;50.104;8.758;2023-03-03T09:10:10;3.20;99.90
28023;DHT22;67403;50.104;8.758;2023-03-03T09:12:40;3.40;99.90
28023;DHT22;67403;50.104;8.758;2023-03-03T09:15:14;3.40;99.90
28023;DHT22;67403;50.104;8.758;2023-03-03T09:17:42;3.60;99.90
28023;DHT22;67403;50.104;8.758;2023-03-03T09:20:31;3.40;99.90
28023;DHT22;67403;50.104;8.758;2023-03-03T09:23:21;3.30;99.90
28023;DHT22;67403;50.104;8.758;2023-03-03T09:25:52;3.30;99.90
28023;DHT22;67403;50.104;8.758;2023-03-03T09:28:23;3.40;99.90
28023;DHT22;67403;50.104;8.758;2023-03-03T09:30:52;3.40;99.90
28023;DHT22;67403;50.104;8.758;2023-03-03T09:33:26;3.30;99.90
28023;DHT22;67403;50.104;8.758;2023-03-03T09:36:01;3.40;99.90
28023;DHT22;67403;50.104;8.758;2023-03-03T09:38:30;3.60;99.90
28023;DHT22;67403;50.104;8.758;2023-03-03T09:44:03;3.50;99.90
28023;DHT22;67403;50.104;8.758;2023-03-03T09:46:38;3.50;99.90
28023;DHT22;67403;50.104;8.758;2023-03-03T09:49:17;3.50;99.90
28023;DHT22;67403;50.104;8.758;2023-03-03T09:51:59;4.10;99.90
28023;DHT22;67403;50.104;8.758;2023-03-03T09:54:42;4.20;99.90
28023;DHT22;67403;50.104;8.758;2023-03-03T09:57:17;4.60;99.90
28023;DHT22;67403;50.104;8.758;2023-03-03T10:00:03;4.20;99.90
28023;DHT22;67403;50.104;8.758;2023-03-03T10:02:43;4.00;99.90
28023;DHT22;67403;50.104;8.758;2023-03-03T10:05:18;3.90;99.90
28023;DHT22;67403;50.104;8.758;2023-03-03T10:07:58;4.10;99.90
28023;DHT22;67403;50.104;8.758;2023-03-03T10:10:38;4.60;99.90
28023;DHT22;67403;50.104;8.758;2023-03-03T10:13:21;5.00;99.90
28023;DHT22;67403;50.104;8.758;2023-03-03T10:16:03;5.30;99.90
28023;DHT22;67403;50.104;8.758;2023-03-03T10:18:38;5.10;99.90
28023;DHT22;67403;50.104;8.758;2023-03-03T10:21:09;5.50;99.90
28023;DHT22;67403;50.104;8.758;2023-03-03T10:23:51;5.90;99.90
28023;DHT22;67403;50.104;8.758;2023-03-03T10:26:26;6.00;99.90
28023;DHT22;67403;50.104;8.758;2023-03-03T10:29:04;4.80;99.90
28023;DHT22;67403;50.104;8.758;2023-03-03T10:31:44;5.50;99.90
28023;DHT22;67403;50.104;8.758;2023-03-03T10:34:22;6.20;99.90
28023;DHT22;67403;50.104;8.758;2023-03-03T10:36:54;6.90;99.90
28023;DHT22;67403;50.104;8.758;2023-03-03T10:39:36;7.10;99.90
28023;DHT22;67403;50.104;8.758;2023-03-03T10:42:21;7.30;99.90
28023;DHT22;67403;50.104;8.758;2023-03-03T10:45:24;7.60;99.90
28023;DHT22;67403;50.104;8.758;2023-03-03T10:48:06;7.90;99.90
28023;DHT22;67403;50.104;8.758;2023-03-03T10:50:46;7.50;99.90
28023;DHT22;67403;50.104;8.758;2023-03-03T10:53:21;8.00;99.90
28023;DHT22;67403;50.104;8.758;2023-03-03T10:56:01;8.20;99.90
28023;DHT22;67403;50.104;8.758;2023-03-03T10:58:56;8.80;99.90
28023;DHT22;67403;50.104;8.758;2023-03-03T11:01:33;8.90;99.90
28023;DHT22;67403;50.104;8.758;2023-03-03T11:04:23;8.90;99.90
28023;DHT22;67403;50.104;8.758;2023-03-03T11:06:58;8.10;99.90
28023;DHT22;67403;50.104;8.758;2023-03-03T11:09:38;8.10;99.90
28023;DHT22;67403;50.104;8.758;2023-03-03T11:12:24;8.50;99.90
28023;DHT22;67403;50.104;8.758;2023-03-03T11:15:05;9.40;99.90
28023;DHT22;67403;50.104;8.758;2023-03-03T11:17:49;8.90;99.90
28023;DHT22;67403;50.104;8.758;2023-03-03T11:20:27;9.10;99.90
28023;DHT22;67403;50.104;8.758;2023-03-03T11:23:05;9.20;99.90
28023;DHT22;67403;50.104;8.758;2023-03-03T11:25:41;9.40;99.90
28023;DHT22;67403;50.104;8.758;2023-03-03T11:28:21;9.50;99.90
28023;DHT22;67403;50.104;8.758;2023-03-03T11:31:01;10.10;99.90
28023;DHT22;67403;50.104;8.758;2023-03-03T11:33:40;11.70;99.90
28023;DHT22;67403;50.104;8.758;2023-03-03T11:36:13;10.90;99.90
28023;DHT22;67403;50.104;8.758;2023-03-03T11:38:53;10.20;99.90
28023;DHT22;67403;50.104;8.758;2023-03-03T11:41:35;10.50;99.90
28023;DHT22;67403;50.104;8.758;2023-03-03T11:44:10;10.60;99.90
28023;DHT22;67403;50.104;8.758;2023-03-03T11:46:46;11.20;99.90
28023;DHT22;67403;50.104;8.758;2023-03-03T11:49:19;10.50;99.90
28023;DHT22;67403;50.104;8.758;2023-03-03T11:51:58;11.10;99.90
28023;DHT22;67403;50.104;8.758;2023-03-03T11:54:30;10.30;99.90
28023;DHT22;67403;50.104;8.758;2023-03-03T11:57:10;10.80;99.90
28023;DHT22;67403;50.104;8.758;2023-03-03T11:59:47;10.70;99.90
28023;DHT22;67403;50.104;8.758;2023-03-03T12:02:27;10.80;99.90
28023;DHT22;67403;50.104;8.758;2023-03-03T12:05:05;10.90;99.90
28023;DHT22;67403;50.104;8.758;2023-03-03T12:07:39;10.90;99.90
28023;DHT22;67403;50.104;8.758;2023-03-03T12:10:16;9.50;99.90
28023;DHT22;67403;50.104;8.758;2023-03-03T12:12:51;9.60;99.90
28023;DHT22;67403;50.104;8.758;2023-03-03T12:15:27;10.20;99.90
28023;DHT22;67403;50.104;8.758;2023-03-03T12:18:15;10.90;99.90
28023;DHT22;67403;50.104;8.758;2023-03-03T12:20:57;10.20;99.90
28023;DHT22;67403;50.104;8.758;2023-03-03T12:23:41;10.80;99.90
28023;DHT22;67403;50.104;8.758;2023-03-03T12:26:16;10.20;99.90
28023;DHT22;67403;50.104;8.758;2023-03-03T12:28:50;10.50;99.90
28023;DHT22;67403;50.104;8.758;2023-03-03T12:31:25;10.70;99.90
28023;DHT22;67403;50.104;8.758;2023-03-03T12:33:55;11.40;99.90
28023;DHT22;67403;50.104;8.758;2023-03-03T12:36:47;13.40;99.90
28023;DHT22;67403;50.104;8.758;2023-03-03T12:39:27;12.90;99.90
28023;DHT22;67403;50.104;8.758;2023-03-03T12:42:01;11.00;99.90
28023;DHT22;67403;50.104;8.758;2023-03-03T12:44:35;10.30;99.90
28023;DHT22;67403;50.104;8.758;2023-03-03T12:47:10;10.60;99.90
28023;DHT22;67403;50.104;8.758;2023-03-03T12:49:48;11.30;99.90
28023;DHT22;67403;50.104;8.758;2023-03-03T12:52:27;11.30;99.90
28023;DHT22;67403;50.104;8.758;2023-03-03T12:55:01;11.90;99.90
28023;DHT22;67403;50.104;8.758;2023-03-03T12:57:34;12.00;99.90
28023;DHT22;67403;50.104;8.758;2023-03-03T13:00:18;11.90;99.90
28023;DHT22;67403;50.104;8.758;2023-03-03T13:02:55;11.30;99.90
28023;DHT22;67403;50.104;8.758;2023-03-03T13:05:28;11.40;99.90
28023;DHT22;67403;50.104;8.758;2023-03-03T13:08:14;13.60;99.90
28023;DHT22;67403;50.104;8.758;2023-03-03T13:10:47;14.60;99.90
28023;DHT22;67403;50.104;8.758;2023-03-03T13:13:19;14.30;99.90
28023;DHT22;67403;50.104;8.758;2023-03-03T13:15:57;15.50;97.10
28023;DHT22;67403;50.104;8.758;2023-03-03T13:18:33;12.90;99.90
28023;DHT22;67403;50.104;8.758;2023-03-03T13:21:05;12.20;99.90
28023;DHT22;67403;50.104;8.758;2023-03-03T13:23:44;14.00;99.80
28023;DHT22;67403;50.104;8.758;2023-03-03T13:26:19;13.60;98.20
28023;DHT22;67403;50.104;8.758;2023-03-03T13:28:57;12.80;99.90
28023;DHT22;67403;50.104;8.758;2023-03-03T13:31:28;13.40;99.00
28023;DHT22;67403;50.104;8.758;2023-03-03T13:33:58;12.80;96.30
28023;DHT22;67403;50.104;8.758;2023-03-03T13:36:30;12.50;99.50
28023;DHT22;67403;50.104;8.758;2023-03-03T13:39:02;14.10;97.60
28023;DHT22;67403;50.104;8.758;2023-03-03T13:41:35;14.10;95.10
28023;DHT22;67403;50.104;8.758;2023-03-03T13:44:12;13.20;96.70
28023;DHT22;67403;50.104;8.758;2023-03-03T13:46:43;13.10;97.70
28023;DHT22;67403;50.104;8.758;2023-03-03T13:49:27;12.90;98.50
28023;DHT22;67403;50.104;8.758;2023-03-03T13:51:59;13.50;95.30
28023;DHT22;67403;50.104;8.758;2023-03-03T13:54:46;12.80;98.00
28023;DHT22;67403;50.104;8.758;2023-03-03T13:57:26;12.80;97.70
28023;DHT22;67403;50.104;8.758;2023-03-03T14:00:03;12.00;98.60
28023;DHT22;67403;50.104;8.758;2023-03-03T14:02:52;12.00;99.90
28023;DHT22;67403;50.104;8.758;2023-03-03T14:05:25;12.90;98.50
28023;DHT22;67403;50.104;8.758;2023-03-03T14:07:58;14.70;95.20
28023;DHT22;67403;50.104;8.758;2023-03-03T14:10:30;14.60;93.60
28023;DHT22;67403;50.104;8.758;2023-03-03T14:13:02;12.80;96.90
28023;DHT22;67403;50.104;8.758;2023-03-03T14:15:32;11.70;99.20
28023;DHT22;67403;50.104;8.758;2023-03-03T14:18:08;12.30;99.30
28023;DHT22;67403;50.104;8.758;2023-03-03T14:20:44;12.00;99.70
28023;DHT22;67403;50.104;8.758;2023-03-03T14:23:15;11.10;99.90
28023;DHT22;67403;50.104;8.758;2023-03-03T14:25:58;10.60;99.90
28023;DHT22;67403;50.104;8.758;2023-03-03T14:28:27;11.30;99.90
28023;DHT22;67403;50.104;8.758;2023-03-03T14:30:56;10.80;99.90
28023;DHT22;67403;50.104;8.758;2023-03-03T14:33:28;11.00;99.90
28023;DHT22;67403;50.104;8.758;2023-03-03T14:36:03;11.60;99.90
28023;DHT22;67403;50.104;8.758;2023-03-03T14:38:39;12.20;99.90
28023;DHT22;67403;50.104;8.758;2023-03-03T14:41:17;11.00;99.90
28023;DHT22;67403;50.104;8.758;2023-03-03T14:43:55;10.70;99.90
28023;DHT22;67403;50.104;8.758;2023-03-03T14:46:38;11.40;99.90
28023;DHT22;67403;50.104;8.758;2023-03-03T14:49:13;11.80;99.90
28023;DHT22;67403;50.104;8.758;2023-03-03T14:51:43;12.90;99.60
28023;DHT22;67403;50.104;8.758;2023-03-03T14:54:20;12.90;99.30
28023;DHT22;67403;50.104;8.758;2023-03-03T14:57:01;11.80;99.20
28023;DHT22;67403;50.104;8.758;2023-03-03T14:59:29;11.30;99.90
28023;DHT22;67403;50.104;8.758;2023-03-03T15:02:06;11.40;99.90
28023;DHT22;67403;50.104;8.758;2023-03-03T15:04:38;12.50;99.90
28023;DHT22;67403;50.104;8.758;2023-03-03T15:07:19;11.60;99.90
28023;DHT22;67403;50.104;8.758;2023-03-03T15:09:52;10.20;99.90
28023;DHT22;67403;50.104;8.758;2023-03-03T15:12:22;9.60;99.90
28023;DHT22;67403;50.104;8.758;2023-03-03T15:14:50;9.20;99.90
28023;DHT22;67403;50.104;8.758;2023-03-03T15:17:29;8.80;99.90
28023;DHT22;67403;50.104;8.758;2023-03-03T15:20:13;8.50;99.90
28023;DHT22;67403;50.104;8.758;2023-03-03T15:22:47;7.80;99.90
28023;DHT22;67403;50.104;8.758;2023-03-03T15:25:22;7.60;99.90
28023;DHT22;67403;50.104;8.758;2023-03-03T15:28:00;7.50;99.90
28023;DHT22;67403;50.104;8.758;2023-03-03T15:30:35;7.30;99.90
28023;DHT22;67403;50.104;8.758;2023-03-03T15:33:11;7.20;99.90
28023;DHT22;67403;50.104;8.758;2023-03-03T15:35:47;7.20;99.90
28023;DHT22;67403;50.104;8.758;2023-03-03T15:38:42;7.10;99.90
28023;DHT22;67403;50.104;8.758;2023-03-03T15:41:18;7.00;99.90
28023;DHT22;67403;50.104;8.758;2023-03-03T15:43:59;7.10;99.90
28023;DHT22;67403;50.104;8.758;2023-03-03T15:46:33;7.10;99.90
28023;DHT22;67403;50.104;8.758;2023-03-03T15:49:15;7.00;99.90
28023;DHT22;67403;50.104;8.758;2023-03-03T15:52:01;6.90;99.90
28023;DHT22;67403;50.104;8.758;2023-03-03T15:54:38;6.90;99.90
28023;DHT22;67403;50.104;8.758;2023-03-03T15:57:13;6.70;99.90
28023;DHT22;67403;50.104;8.758;2023-03-03T16:02:45;6.80;99.90
28023;DHT22;67403;50.104;8.758;2023-03-03T16:05:21;6.80;99.90
28023;DHT22;67403;50.104;8.758;2023-03-03T16:07:56;6.70;99.90
28023;DHT22;67403;50.104;8.758;2023-03-03T16:10:31;6.60;99.90
28023;DHT22;67403;50.104;8.758;2023-03-03T16:13:13;6.60;99.90
28023;DHT22;67403;50.104;8.758;2023-03-03T16:15:51;6.50;99.90
28023;DHT22;67403;50.104;8.758;2023-03-03T16:18:35;6.50;99.90
28023;DHT22;67403;50.104;8.758;2023-03-03T16:21:21;6.60;99.90